Time;durP1;ratioP1;P1;durP2;ratioP2;P2;SDS_P1;SDS_P2;PMS_P1;PMS_P2;Temp;Humidity;BMP_temperature;BMP_pressure;BME280_temperature;BME280_humidity;BME280_pressure;Samples;Min_cycle;Max_cycle;Signal;HPM_P1;HPM_P2
2022/04/17 00:00:23;;;;;;;1.05;0.73;;;;;;;19.03;44.59;103112.78;5128649;27;20056;-50
2022/04/17 00:02:48;;;;;;;1.35;1.00;;;;;;;19.03;44.50;103111.91;5128724;27;20506;-51
2022/04/17 00:05:14;;;;;;;0.90;0.70;;;;;;;19.02;44.60;103104.78;5111803;27;20023;-51
2022/04/17 00:07:40;;;;;;;1.20;1.10;;;;;;;19.01;44.39;103106.63;5128048;27;20046;-49
2022/04/17 00:10:08;;;;;;;0.70;0.70;;;;;;;19.01;44.60;103103.94;5128329;27;20019;-50
2022/04/17 00:12:33;;;;;;;1.02;0.70;;;;;;;19.01;44.67;103105.78;5128657;27;20025;-50
2022/04/17 00:15:00;;;;;;;1.10;0.90;;;;;;;18.88;44.19;103089.66;5146963;27;20049;-53
2022/04/17 00:17:25;;;;;;;1.00;0.85;;;;;;;19.00;44.20;103104.06;5111159;27;20076;-53
2022/04/17 00:19:51;;;;;;;1.13;0.80;;;;;;;18.95;44.40;103099.88;5128127;27;20031;-52
2022/04/17 00:22:16;;;;;;;1.00;0.88;;;;;;;18.88;44.02;103087.81;5128011;27;20041;-53
2022/04/17 00:24:42;;;;;;;0.90;0.80;;;;;;;18.98;44.20;103106.84;5146863;27;20055;-49
2022/04/17 00:27:08;;;;;;;1.02;0.93;;;;;;;18.98;44.04;103102.31;5128044;27;20019;-52
2022/04/17 00:29:33;;;;;;;0.88;0.80;;;;;;;18.99;43.98;103100.50;5128445;27;20038;-49
2022/04/17 00:31:58;;;;;;;0.88;0.80;;;;;;;18.98;43.94;103105.00;5146455;27;20114;-49
2022/04/17 00:34:24;;;;;;;0.90;0.73;;;;;;;18.97;44.09;103100.59;5112657;28;20020;-50
2022/04/17 00:36:50;;;;;;;1.08;0.90;;;;;;;18.98;43.71;103098.75;5107146;28;20031;-51
2022/04/17 00:39:15;;;;;;;1.27;0.80;;;;;;;18.95;44.04;103093.63;5119484;27;20452;-52
2022/04/17 00:41:40;;;;;;;1.00;0.80;;;;;;;18.87;44.07;103075.34;5111157;27;20050;-52
2022/04/17 00:44:10;;;;;;;1.08;0.93;;;;;;;18.97;44.08;103088.97;5127108;27;20488;-50
2022/04/17 00:46:36;;;;;;;0.70;0.70;;;;;;;18.96;44.03;103089.94;5144530;27;20494;-53
2022/04/17 00:49:01;;;;;;;1.05;0.90;;;;;;;18.95;44.00;103088.25;5146395;27;20019;-51
2022/04/17 00:51:26;;;;;;;1.00;0.90;;;;;;;18.95;44.00;103085.53;5144541;27;20497;-51
2022/04/17 00:53:53;;;;;;;1.50;1.10;;;;;;;18.94;43.68;103081.09;5146297;27;20035;-49
2022/04/17 00:56:19;;;;;;;0.95;0.90;;;;;;;18.86;43.64;103070.03;5144787;27;20031;-53
2022/04/17 00:58:44;;;;;;;0.80;0.77;;;;;;;18.94;43.84;103084.66;5144257;27;20019;-51
2022/04/17 01:01:10;;;;;;;1.08;0.90;;;;;;;18.93;44.07;103085.63;5146265;27;20027;-53
2022/04/17 01:03:35;;;;;;;0.93;0.80;;;;;;;18.84;43.73;103063.91;5145868;27;20138;-51
2022/04/17 01:06:01;;;;;;;0.93;0.82;;;;;;;18.93;43.78;103076.69;5145717;27;20027;-52
2022/04/17 01:08:26;;;;;;;0.95;0.88;;;;;;;18.83;43.68;103067.59;5144090;27;20034;-51
2022/04/17 01:10:52;;;;;;;1.27;1.00;;;;;;;18.84;43.65;103062.09;5144665;27;20023;-48
2022/04/17 01:13:17;;;;;;;0.88;0.80;;;;;;;18.91;43.69;103073.28;5141838;27;20475;-51
2022/04/17 01:15:43;;;;;;;1.42;1.20;;;;;;;18.79;43.66;103055.31;5145917;27;20078;-52
2022/04/17 01:18:10;;;;;;;1.10;0.98;;;;;;;18.90;43.80;103075.09;5145528;27;20407;-49
2022/04/17 01:20:36;;;;;;;1.60;1.10;;;;;;;18.80;43.67;103057.03;5145435;27;20031;-50
2022/04/17 01:28:29;;;;;;;1.25;0.90;;;;;;;18.78;43.47;103061.69;5144959;27;20030;-50
2022/04/17 01:30:55;;;;;;;0.88;0.82;;;;;;;18.86;43.65;103070.94;5127023;27;20062;-52
2022/04/17 01:33:21;;;;;;;2.75;1.40;;;;;;;18.86;43.55;103068.22;5126849;27;20110;-52
2022/04/17 01:35:47;;;;;;;1.00;0.90;;;;;;;18.86;43.38;103067.34;5126434;27;20031;-51
2022/04/17 01:38:12;;;;;;;1.13;0.90;;;;;;;18.85;43.27;103065.63;5144897;27;20053;-49
2022/04/17 01:40:37;;;;;;;0.93;0.90;;;;;;;18.84;43.28;103070.16;5144850;27;20043;-53
2022/04/17 01:43:10;;;;;;;0.85;0.85;;;;;;;18.72;43.35;103049.53;5144183;27;20143;-51
2022/04/17 01:45:35;;;;;;;0.82;0.80;;;;;;;18.83;43.26;103064.91;5134567;27;20133;-49
2022/04/17 01:48:01;;;;;;;1.50;1.33;;;;;;;18.72;43.52;103045.00;5143451;27;20042;-49
2022/04/17 01:50:27;;;;;;;1.10;1.00;;;;;;;18.82;43.23;103060.47;5126615;27;20046;-51
2022/04/17 01:52:53;;;;;;;1.13;1.00;;;;;;;18.81;43.66;103059.59;5126650;27;20052;-49
2022/04/17 01:55:18;;;;;;;1.33;1.17;;;;;;;18.81;43.27;103064.13;5144992;27;20030;-53
2022/04/17 01:57:43;;;;;;;1.45;1.10;;;;;;;18.80;43.19;103063.28;5144571;27;20057;-52
2022/04/17 02:00:09;;;;;;;1.08;0.90;;;;;;;18.79;43.15;103056.19;5126844;27;20490;-49
2022/04/17 02:02:35;;;;;;;0.98;0.88;;;;;;;18.78;43.19;103053.63;5144779;27;20027;-51
2022/04/17 02:05:00;;;;;;;1.20;1.10;;;;;;;18.66;43.09;103031.09;5144160;27;20082;-51
2022/04/17 02:07:25;;;;;;;1.33;1.00;;;;;;;18.77;43.28;103055.41;5125863;27;20027;-48
2022/04/17 02:09:50;;;;;;;1.23;1.00;;;;;;;18.76;43.36;103051.00;5144702;27;20023;-50
2022/04/17 02:12:15;;;;;;;1.13;0.93;;;;;;;18.76;43.52;103055.56;5144419;27;20032;-51
2022/04/17 02:14:41;;;;;;;1.92;1.00;;;;;;;18.75;43.44;103049.31;5126110;27;20055;-51
2022/04/17 02:17:06;;;;;;;1.23;1.00;;;;;;;18.74;43.27;103055.69;5126104;28;20042;-53
2022/04/17 02:19:31;;;;;;;0.90;0.90;;;;;;;18.62;43.30;103035.84;5126259;27;20019;-51
2022/04/17 02:21:57;;;;;;;1.10;1.00;;;;;;;18.61;43.53;103034.16;5125934;27;20031;-51
2022/04/17 02:24:22;;;;;;;1.23;1.02;;;;;;;18.71;43.47;103048.66;5109271;27;20038;-52
2022/04/17 02:26:47;;;;;;;1.25;1.00;;;;;;;18.70;43.12;103043.41;5144458;27;20045;-54
2022/04/17 02:29:13;;;;;;;0.90;0.90;;;;;;;18.70;43.09;103051.50;5144297;27;20027;-50
2022/04/17 02:31:38;;;;;;;1.15;1.02;;;;;;;18.67;43.27;103054.38;5144540;28;20023;-51
2022/04/17 02:34:03;;;;;;;1.83;1.15;;;;;;;18.68;43.05;103048.00;5125984;28;20031;-48
2022/04/17 02:36:28;;;;;;;1.20;0.85;;;;;;;18.59;43.24;103038.78;5125635;28;20023;-48
2022/04/17 02:38:54;;;;;;;1.30;1.17;;;;;;;18.68;43.32;103056.09;5125541;28;20019;-52
2022/04/17 02:41:19;;;;;;;1.15;1.05;;;;;;;18.66;43.16;103058.91;5126069;28;20023;-49
2022/04/17 02:43:44;;;;;;;1.20;1.10;;;;;;;18.64;43.06;103052.75;5143891;28;20034;-50
2022/04/17 02:46:09;;;;;;;1.55;1.33;;;;;;;18.54;43.27;103024.78;5144407;28;20079;-48
2022/04/17 02:48:35;;;;;;;1.33;1.10;;;;;;;18.62;43.19;103046.63;5143264;28;20035;-50
2022/04/17 02:51:01;;;;;;;1.63;1.00;;;;;;;18.63;42.81;103042.97;5142928;28;20049;-51
2022/04/17 02:53:26;;;;;;;1.10;1.00;;;;;;;18.61;43.19;103042.22;5142733;27;20027;-48
2022/04/17 02:55:52;;;;;;;1.08;0.98;;;;;;;18.62;43.06;103037.69;5145931;27;20044;-54
2022/04/17 02:58:17;;;;;;;1.17;1.00;;;;;;;18.62;43.01;103043.94;5148086;27;20023;-52
2022/04/17 03:06:11;;;;;;;1.73;1.20;;;;;;;18.56;42.69;103039.00;5111922;28;20042;-52
2022/04/17 03:08:40;;;;;;;1.20;0.90;;;;;;;18.59;43.02;103033.38;5108849;28;20028;-52
2022/04/17 03:11:05;;;;;;;1.20;1.10;;;;;;;18.58;42.96;103046.97;5127770;28;20081;-54
2022/04/17 03:13:31;;;;;;;1.20;1.10;;;;;;;18.56;42.70;103036.31;5126999;28;20028;-53
2022/04/17 03:15:56;;;;;;;1.20;1.10;;;;;;;18.57;42.91;103037.19;5127705;28;20024;-54
2022/04/17 03:18:21;;;;;;;1.45;1.35;;;;;;;18.56;43.04;103038.13;5092277;28;20020;-51
2022/04/17 03:20:47;;;;;;;1.92;1.10;;;;;;;18.55;42.60;103031.03;5127260;28;20028;-53
2022/04/17 03:23:13;;;;;;;1.13;0.80;;;;;;;18.42;42.73;103006.84;5127174;28;20403;-52
2022/04/17 03:25:39;;;;;;;1.15;0.95;;;;;;;18.54;42.60;103024.78;5092192;28;20024;-51
2022/04/17 03:28:05;;;;;;;2.38;1.10;;;;;;;18.54;42.65;103027.50;5126781;28;20020;-51
2022/04/17 03:30:30;;;;;;;1.70;1.10;;;;;;;18.54;42.89;103022.09;5109271;28;20503;-52
2022/04/17 03:32:56;;;;;;;1.75;1.33;;;;;;;18.43;42.37;103006.72;5127011;28;20231;-54
2022/04/17 03:35:22;;;;;;;1.33;1.00;;;;;;;18.52;42.74;103015.09;5127458;27;20023;-51
2022/04/17 03:37:47;;;;;;;1.45;1.10;;;;;;;18.52;42.21;103017.78;5128720;27;20068;-54
2022/04/17 03:40:14;;;;;;;1.13;0.80;;;;;;;18.51;42.78;103014.25;5147309;27;20039;-52
2022/04/17 03:42:39;;;;;;;1.65;1.08;;;;;;;18.50;42.61;103012.53;5147228;27;20057;-50
2022/04/17 03:45:06;;;;;;;1.25;0.90;;;;;;;18.49;42.36;103014.38;5128786;27;20395;-52
2022/04/17 03:47:32;;;;;;;1.10;1.00;;;;;;;18.48;42.36;103011.81;5128930;27;20111;-51
2022/04/17 03:49:58;;;;;;;1.27;1.17;;;;;;;18.47;42.61;103005.53;5129201;27;20027;-51
2022/04/17 03:52:23;;;;;;;1.45;1.30;;;;;;;18.47;42.61;103007.38;5128179;27;20027;-49
2022/04/17 03:54:48;;;;;;;1.50;1.20;;;;;;;18.43;42.42;103000.47;5147346;27;20031;-52
2022/04/17 03:57:13;;;;;;;1.23;1.13;;;;;;;18.44;42.37;103002.22;5146654;27;20056;-50
2022/04/17 03:59:39;;;;;;;1.35;1.25;;;;;;;18.45;42.49;103004.78;5129175;27;20027;-49
2022/04/17 04:02:04;;;;;;;2.67;1.40;;;;;;;18.42;42.38;102996.94;5147034;27;20054;-51
2022/04/17 04:04:29;;;;;;;1.48;1.15;;;;;;;18.32;42.56;102990.53;5147050;27;20027;-49
2022/04/17 04:06:54;;;;;;;1.73;1.25;;;;;;;18.41;42.44;103008.69;5127852;27;20035;-48
2022/04/17 04:09:20;;;;;;;1.17;0.98;;;;;;;18.41;42.11;103002.44;5146906;27;20024;-50
2022/04/17 04:11:46;;;;;;;1.45;1.25;;;;;;;18.40;42.07;102990.81;5147197;27;20023;-52
2022/04/17 04:14:11;;;;;;;1.15;1.02;;;;;;;18.40;42.08;103006.97;5128280;27;20085;-53
2022/04/17 04:16:36;;;;;;;1.05;0.95;;;;;;;18.38;42.14;102998.13;5128481;27;20037;-52
2022/04/17 04:19:02;;;;;;;1.55;1.20;;;;;;;18.38;42.41;102997.28;5128647;27;20031;-51
2022/04/17 04:21:28;;;;;;;1.30;1.20;;;;;;;18.37;42.30;102990.19;5110746;27;20026;-49
2022/04/17 04:23:53;;;;;;;1.10;1.00;;;;;;;18.36;42.09;103000.09;5128016;27;20019;-52
2022/04/17 04:26:18;;;;;;;1.50;1.17;;;;;;;18.35;41.99;102995.69;5146020;27;20544;-50
2022/04/17 04:28:43;;;;;;;1.42;1.15;;;;;;;18.34;42.14;102985.88;5142996;27;20031;-52
2022/04/17 04:31:10;;;;;;;1.15;1.00;;;;;;;18.29;42.05;102981.81;5146617;27;20045;-52
2022/04/17 04:33:37;;;;;;;1.55;1.20;;;;;;;18.18;41.97;102964.63;5127517;27;20026;-51
2022/04/17 04:36:04;;;;;;;0.95;0.85;;;;;;;18.31;41.87;102983.44;5146025;27;20112;-48
2022/04/17 04:38:30;;;;;;;1.15;1.02;;;;;;;18.31;42.09;102980.75;5110596;27;20060;-49
2022/04/17 04:40:56;;;;;;;1.48;1.33;;;;;;;18.31;42.01;102985.25;5146272;27;20050;-49
2022/04/17 04:43:21;;;;;;;1.40;1.10;;;;;;;18.30;41.77;102979.00;5127718;27;20087;-48
2022/04/17 04:51:14;;;;;;;1.70;1.20;;;;;;;18.18;41.96;102971.81;5129500;27;20030;-50
2022/04/17 04:53:40;;;;;;;1.17;1.08;;;;;;;18.28;41.88;102980.09;5127545;27;20031;-49
2022/04/17 04:56:05;;;;;;;1.05;0.90;;;;;;;18.27;41.62;102975.69;5127893;27;20038;-53
2022/04/17 04:58:31;;;;;;;1.13;1.00;;;;;;;18.27;41.60;102979.25;5145637;27;20034;-51
2022/04/17 05:00:56;;;;;;;1.15;1.00;;;;;;;18.26;41.66;102974.81;5127723;27;20031;-52
2022/04/17 05:03:21;;;;;;;1.80;1.33;;;;;;;18.26;41.76;102972.13;5126789;27;20061;-51
2022/04/17 05:05:47;;;;;;;1.60;1.25;;;;;;;18.26;41.93;102968.56;5131126;27;20030;-48
2022/04/17 05:08:12;;;;;;;1.25;0.98;;;;;;;18.26;41.56;102966.72;5125844;27;20029;-49
2022/04/17 05:10:38;;;;;;;1.23;1.02;;;;;;;18.25;41.86;102975.78;5132594;27;20027;-49
2022/04/17 05:13:04;;;;;;;1.58;1.25;;;;;;;18.25;41.65;102973.09;5106488;28;20042;-48
2022/04/17 05:15:30;;;;;;;1.25;1.02;;;;;;;18.20;41.85;102962.66;5124810;27;20488;-51
2022/04/17 05:17:55;;;;;;;1.73;0.90;;;;;;;18.15;41.76;102953.22;5115669;27;20029;-48
2022/04/17 05:20:21;;;;;;;1.20;1.10;;;;;;;18.23;41.85;102975.91;5140578;27;20019;-49
2022/04/17 05:22:50;;;;;;;1.30;1.20;;;;;;;18.22;41.89;102974.22;5105852;28;20131;-52
2022/04/17 05:25:15;;;;;;;1.70;1.15;;;;;;;18.22;41.78;102982.28;5124867;28;20589;-48
2022/04/17 05:27:40;;;;;;;1.20;1.10;;;;;;;18.12;41.89;102958.84;5127488;27;20031;-45
2022/04/17 05:30:06;;;;;;;1.85;1.40;;;;;;;18.23;41.75;102972.38;5118651;27;20031;-46
2022/04/17 05:32:32;;;;;;;1.20;1.10;;;;;;;18.23;41.79;102981.31;5121956;27;20027;-45
2022/04/17 05:34:57;;;;;;;1.02;1.00;;;;;;;18.24;41.90;102980.31;5123604;27;20027;-47
2022/04/17 05:37:22;;;;;;;1.48;1.20;;;;;;;18.25;41.67;102975.78;5141043;27;20050;-45
2022/04/17 05:39:47;;;;;;;1.30;1.20;;;;;;;18.20;41.76;102976.13;5141707;27;20043;-46
2022/04/17 05:42:13;;;;;;;1.25;1.15;;;;;;;18.23;41.76;102977.75;5142087;27;20135;-47
2022/04/17 05:44:39;;;;;;;1.17;1.08;;;;;;;18.23;41.85;102977.75;5138081;27;20035;-49
2022/04/17 05:47:04;;;;;;;1.55;1.30;;;;;;;18.22;41.79;102974.22;5141987;27;20035;-48
2022/04/17 05:49:29;;;;;;;1.10;1.00;;;;;;;18.22;41.92;102973.31;5120739;27;20022;-55
2022/04/17 05:51:58;;;;;;;1.40;1.30;;;;;;;18.23;41.52;102986.69;5142461;27;20498;-58
2022/04/17 05:54:24;;;;;;;1.58;1.17;;;;;;;18.24;41.82;102974.09;5124138;27;20053;-57
2022/04/17 05:56:49;;;;;;;1.52;1.10;;;;;;;18.26;41.69;102979.34;5122889;27;20053;-56
2022/04/17 05:59:15;;;;;;;1.75;1.23;;;;;;;18.27;41.69;102973.00;5142258;27;20523;-57
2022/04/17 06:01:40;;;;;;;1.50;1.23;;;;;;;18.17;41.94;102964.72;5141898;27;20458;-56
2022/04/17 06:04:05;;;;;;;1.52;1.10;;;;;;;18.17;42.05;102959.34;5122690;27;20059;-54
2022/04/17 06:06:30;;;;;;;1.48;1.33;;;;;;;18.16;42.33;102958.50;5123167;27;20088;-54
2022/04/17 06:08:56;;;;;;;1.20;1.10;;;;;;;18.23;42.69;102970.53;5142691;27;20035;-57
2022/04/17 06:11:21;;;;;;;1.38;1.27;;;;;;;18.24;42.66;102974.94;5142801;27;20030;-54
2022/04/17 06:13:46;;;;;;;1.40;1.20;;;;;;;18.14;42.66;102956.91;5116207;27;20028;-51
2022/04/17 06:16:11;;;;;;;1.35;1.13;;;;;;;18.23;42.68;102975.91;5141569;27;20993;-51
2022/04/17 06:18:37;;;;;;;2.03;1.48;;;;;;;18.24;42.68;102982.16;5108615;28;20020;-50
2022/04/17 06:21:02;;;;;;;2.83;1.40;;;;;;;18.24;42.46;102974.94;5139538;27;20041;-51
2022/04/17 06:23:28;;;;;;;1.98;1.30;;;;;;;18.11;42.82;102954.44;5133849;27;20102;-51
2022/04/17 06:25:53;;;;;;;2.00;1.40;;;;;;;18.11;42.43;102960.66;5122608;28;20020;-52
2022/04/17 06:28:18;;;;;;;1.70;1.52;;;;;;;18.20;42.22;102978.84;5119380;27;20698;-51
2022/04/17 06:30:43;;;;;;;2.33;1.80;;;;;;;18.20;42.00;102975.28;5141407;27;20050;-51
2022/04/17 06:33:09;;;;;;;1.88;1.45;;;;;;;18.11;42.05;102949.91;5122834;28;20064;-48
2022/04/17 06:35:34;;;;;;;1.45;1.30;;;;;;;18.11;41.87;102943.66;5126234;28;20027;-49
2022/04/17 06:38:02;;;;;;;1.58;1.35;;;;;;;18.13;42.26;102956.00;5123390;28;20038;-54
2022/04/17 06:40:29;;;;;;;1.30;1.20;;;;;;;18.24;42.23;102974.94;5117421;28;20031;-52
2022/04/17 06:42:56;;;;;;;1.95;1.63;;;;;;;18.24;42.09;102974.09;5123934;28;20033;-55
2022/04/17 06:45:22;;;;;;;2.13;1.40;;;;;;;18.27;41.96;102973.00;5126916;28;20019;-56
2022/04/17 06:47:48;;;;;;;1.95;1.40;;;;;;;18.29;42.21;102971.03;5122178;28;20049;-57
2022/04/17 06:50:18;;;;;;;1.20;1.10;;;;;;;18.31;42.11;102971.78;5141858;28;20082;-57
2022/04/17 06:52:43;;;;;;;1.50;1.40;;;;;;;18.23;41.82;102966.97;5140712;27;20023;-58
2022/04/17 06:55:11;;;;;;;1.40;1.30;;;;;;;18.34;42.10;102976.94;5107155;28;20027;-51
2022/04/17 06:57:37;;;;;;;1.40;1.10;;;;;;;18.35;41.99;102976.84;5125664;28;20019;-48
2022/04/17 07:00:09;;;;;;;1.23;1.08;;;;;;;18.37;41.96;102977.56;5125947;28;20026;-49
2022/04/17 07:02:35;;;;;;;1.80;1.38;;;;;;;18.36;41.96;102975.88;5125542;28;20023;-51
2022/04/17 07:05:00;;;;;;;1.30;1.20;;;;;;;18.41;41.98;102978.22;5125982;28;20027;-50
2022/04/17 07:07:25;;;;;;;1.98;1.25;;;;;;;18.40;41.96;102977.34;5124766;28;20091;-49
2022/04/17 07:09:50;;;;;;;1.45;1.30;;;;;;;18.42;42.12;102970.00;5125329;28;20046;-49
2022/04/17 07:12:16;;;;;;;1.48;1.08;;;;;;;18.34;41.92;102950.00;5125152;28;20027;-52
2022/04/17 07:14:42;;;;;;;2.17;1.45;;;;;;;18.35;41.86;102954.41;5125890;28;20027;-51
2022/04/17 07:17:07;;;;;;;1.42;1.25;;;;;;;18.45;41.89;102969.78;5125258;28;20062;-49
2022/04/17 07:19:32;;;;;;;1.30;1.02;;;;;;;18.35;42.04;102954.41;5125783;28;20050;-48
2022/04/17 07:21:57;;;;;;;1.63;1.50;;;;;;;18.36;40.67;102942.69;5143419;28;20035;-49
2022/04/17 07:24:24;;;;;;;5.18;2.10;;;;;;;18.45;40.74;102961.69;5108081;28;20033;-51
2022/04/17 07:26:53;;;;;;;1.55;1.23;;;;;;;18.46;40.85;102962.56;5125615;28;20454;-47
2022/04/17 07:29:22;;;;;;;2.00;1.38;;;;;;;18.34;40.98;102939.25;5116372;28;20027;-55
2022/04/17 07:31:49;;;;;;;1.38;1.20;;;;;;;18.45;40.98;102956.31;5143479;28;20053;-49
2022/04/17 07:34:14;;;;;;;2.17;1.00;;;;;;;18.47;41.10;102961.56;5143661;28;20020;-49
2022/04/17 07:36:39;;;;;;;1.75;1.23;;;;;;;18.49;40.97;102962.34;5124269;28;20094;-43
2022/04/17 07:39:05;;;;;;;1.88;1.40;;;;;;;18.47;40.91;102951.66;5142185;28;20048;-44
2022/04/17 07:41:30;;;;;;;1.80;1.10;;;;;;;18.40;40.96;102944.19;5107141;27;20035;-43
2022/04/17 07:43:55;;;;;;;1.65;1.10;;;;;;;18.38;41.30;102933.50;5139290;27;20023;-44
2022/04/17 07:46:20;;;;;;;1.65;1.20;;;;;;;18.47;41.37;102951.66;5132942;27;20028;-43
2022/04/17 07:48:46;;;;;;;1.88;1.23;;;;;;;18.49;41.33;102956.94;5142858;27;20079;-43
2022/04/17 07:51:11;;;;;;;1.60;1.15;;;;;;;18.49;41.13;102946.16;5146538;27;20585;-44
2022/04/17 07:53:36;;;;;;;2.10;1.35;;;;;;;18.48;41.43;102950.69;5139321;27;20362;-44
2022/04/17 07:56:02;;;;;;;2.83;1.30;;;;;;;18.40;41.42;102941.47;5124273;27;20031;-42
2022/04/17 07:58:35;;;;;;;1.30;1.00;;;;;;;18.48;41.27;102941.75;5110220;27;20050;-44
2022/04/17 08:01:10;;;;;;;1.98;1.20;;;;;;;18.35;41.50;102928.38;5144850;27;20019;-44
2022/04/17 08:03:46;;;;;;;1.77;1.20;;;;;;;18.47;41.52;102943.56;5122671;27;20095;-48
2022/04/17 08:06:15;;;;;;;1.80;1.15;;;;;;;18.49;41.31;102943.47;5146189;27;20125;-48
2022/04/17 08:08:41;;;;;;;2.45;1.10;;;;;;;18.49;41.23;102940.78;5128020;27;20106;-46
2022/04/17 08:11:07;;;;;;;1.30;1.00;;;;;;;18.51;41.19;102941.50;5146550;27;20048;-44
2022/04/17 08:13:33;;;;;;;1.77;1.40;;;;;;;18.43;41.23;102930.47;5143538;27;20019;-47
2022/04/17 08:15:59;;;;;;;1.73;1.00;;;;;;;18.56;41.08;102943.84;5128599;27;20103;-51
2022/04/17 08:18:25;;;;;;;1.65;1.00;;;;;;;18.46;41.17;102928.41;5146484;27;20464;-49
2022/04/17 08:20:50;;;;;;;1.27;1.00;;;;;;;18.53;41.35;102933.34;5147016;27;20044;-46
2022/04/17 08:23:15;;;;;;;1.45;1.15;;;;;;;18.56;40.97;102936.63;5110903;27;20023;-45
2022/04/17 08:25:41;;;;;;;1.50;1.05;;;;;;;18.55;40.97;102934.91;5146692;27;20023;-47
2022/04/17 08:28:06;;;;;;;1.73;0.98;;;;;;;18.55;41.13;102928.66;5110190;27;20023;-52
2022/04/17 08:30:32;;;;;;;1.25;1.08;;;;;;;18.56;40.73;102927.69;5128637;27;20415;-48
2022/04/17 08:32:59;;;;;;;1.20;1.10;;;;;;;18.56;41.06;102922.28;5110842;27;20027;-52
2022/04/17 08:35:24;;;;;;;1.95;0.93;;;;;;;18.56;41.02;102919.59;5146001;27;20011;-45
2022/04/17 08:37:50;;;;;;;1.65;1.25;;;;;;;18.55;41.14;102917.91;5145758;27;20123;-45
2022/04/17 08:40:16;;;;;;;1.10;0.90;;;;;;;18.55;40.87;102913.38;5127727;27;20042;-47
2022/04/17 08:42:41;;;;;;;1.73;1.15;;;;;;;18.56;40.96;102909.69;5112503;28;20059;-49
2022/04/17 08:45:09;;;;;;;2.03;1.40;;;;;;;18.58;40.68;102902.38;5118576;27;20026;-47
2022/04/17 08:47:35;;;;;;;2.30;0.80;;;;;;;18.61;40.96;102909.34;5145153;27;20031;-55
2022/04/17 08:50:01;;;;;;;1.50;1.00;;;;;;;18.56;40.77;102896.22;5146104;27;20023;-45
2022/04/17 08:52:29;;;;;;;0.82;0.82;;;;;;;18.63;40.76;102905.56;5144298;27;20117;-43
2022/04/17 08:54:55;;;;;;;4.35;1.35;;;;;;;18.65;40.54;102900.91;5144903;27;20046;-45
2022/04/17 08:57:22;;;;;;;1.42;1.20;;;;;;;18.67;40.76;102898.94;5145478;27;20039;-47
2022/04/17 08:59:47;;;;;;;1.70;1.20;;;;;;;18.59;40.72;102887.91;5144784;27;20115;-46
2022/04/17 09:02:13;;;;;;;1.00;0.90;;;;;;;18.71;40.67;102902.31;5145945;27;20442;-49
2022/04/17 09:04:42;;;;;;;1.33;0.80;;;;;;;18.62;40.33;102882.28;5144474;27;20082;-45
2022/04/17 09:07:07;;;;;;;;;;;;;;;18.69;40.58;102893.44;5106602;28;20049;-48
2022/04/17 09:09:38;;;;;;;1.60;0.90;;;;;;;18.72;40.65;102891.41;5125170;28;19912;-44
2022/04/17 09:12:04;;;;;;;1.08;0.90;;;;;;;18.62;40.44;102876.03;5106565;28;20093;-54
2022/04/17 09:14:29;;;;;;;1.52;1.00;;;;;;;18.73;40.68;102887.75;5122413;27;20027;-45
2022/04/17 09:16:54;;;;;;;1.65;1.00;;;;;;;18.73;40.48;102881.47;5127280;27;20034;-47
2022/04/17 09:19:20;;;;;;;1.85;1.48;;;;;;;18.74;40.57;102885.91;5145924;27;20034;-55
2022/04/17 09:21:45;;;;;;;2.15;1.00;;;;;;;18.73;40.65;102881.47;5144593;27;20027;-51
2022/04/17 09:24:18;;;;;;;1.35;0.90;;;;;;;18.75;40.72;102879.53;5126407;27;20088;-47
2022/04/17 09:27:01;;;;;;;1.30;0.95;;;;;;;18.76;40.70;102881.25;5140349;27;20064;-43
2022/04/17 09:29:29;;;;;;;1.23;0.93;;;;;;;18.75;40.45;102875.97;5125071;27;20027;-49
2022/04/17 09:31:57;;;;;;;1.33;1.00;;;;;;;18.76;40.58;102875.84;5127086;27;20027;-45
2022/04/17 09:34:23;;;;;;;3.22;0.90;;;;;;;18.76;40.83;102881.25;5126744;27;20436;-45
2022/04/17 09:36:54;;;;;;;1.60;1.02;;;;;;;18.76;40.73;102873.16;5144506;27;20057;-44
2022/04/17 09:39:20;;;;;;;1.77;1.00;;;;;;;18.73;41.00;102860.81;5117983;27;20035;-53
2022/04/17 09:41:56;;;;;;;1.40;1.08;;;;;;;18.77;40.58;102864.09;5137986;27;20715;-56
2022/04/17 09:44:46;;;;;;;1.63;0.93;;;;;;;18.76;40.85;102862.38;5117861;27;20097;-52
2022/04/17 09:47:20;;;;;;;1.92;1.30;;;;;;;18.72;40.67;102861.75;5121336;27;20053;-52
2022/04/17 09:50:00;;;;;;;1.38;0.90;;;;;;;18.72;40.65;102856.38;5123939;27;20042;-51
2022/04/17 09:52:46;;;;;;;2.00;1.08;;;;;;;18.72;40.99;102863.59;5124097;27;20027;-53
2022/04/17 09:55:12;;;;;;;2.20;1.40;;;;;;;18.69;41.12;102853.94;5140772;27;20038;-54
2022/04/17 09:57:39;;;;;;;2.40;1.23;;;;;;;18.68;40.81;102845.91;5123325;27;20034;-56
2022/04/17 10:00:16;;;;;;;1.88;1.25;;;;;;;18.69;41.02;102850.31;5124105;27;20031;-55
2022/04/17 10:02:44;;;;;;;1.08;0.98;;;;;;;18.58;41.20;102826.94;5123849;27;20038;-53
2022/04/17 10:05:11;;;;;;;1.65;1.10;;;;;;;18.62;40.91;102823.03;5122895;27;20130;-54
2022/04/17 10:07:42;;;;;;;1.42;0.90;;;;;;;18.70;41.21;102841.31;5141427;27;20026;-54
2022/04/17 10:10:08;;;;;;;1.33;1.00;;;;;;;18.69;41.20;102832.38;5139803;27;20028;-51
2022/04/17 10:12:37;;;;;;;3.58;1.70;;;;;;;18.70;41.01;102830.53;5141828;27;20050;-50
2022/04/17 10:15:06;;;;;;;1.42;0.88;;;;;;;18.70;41.21;102823.31;5124172;27;20045;-50
2022/04/17 10:17:32;;;;;;;1.83;1.10;;;;;;;18.70;41.14;102817.06;5124257;27;20023;-46
2022/04/17 10:20:02;;;;;;;1.58;1.20;;;;;;;18.71;41.12;102822.31;5106654;28;20420;-47
2022/04/17 10:22:33;;;;;;;1.33;1.00;;;;;;;18.72;41.13;102820.47;5141562;27;20083;-44
2022/04/17 10:24:58;;;;;;;1.35;1.05;;;;;;;18.61;41.39;102797.06;5124330;27;20538;-46
2022/04/17 10:27:27;;;;;;;2.05;0.93;;;;;;;18.72;41.50;102810.56;5142287;27;20060;-47
2022/04/17 10:30:05;;;;;;;2.83;1.60;;;;;;;18.72;41.70;102807.88;5124144;28;20034;-45
2022/04/17 10:32:33;;;;;;;2.70;1.17;;;;;;;18.72;41.66;102807.88;5105970;28;20109;-45
2022/04/17 10:35:20;;;;;;;2.00;1.00;;;;;;;18.72;41.58;102802.47;5122971;28;20087;-45
2022/04/17 10:38:03;;;;;;;1.55;0.90;;;;;;;18.73;41.44;102801.53;5140792;28;20066;-47
2022/04/17 10:40:31;;;;;;;1.52;0.95;;;;;;;18.72;41.53;102796.22;5138016;28;20043;-54
2022/04/17 10:42:59;;;;;;;1.40;1.17;;;;;;;18.75;41.45;102781.66;5139338;28;20023;-57
2022/04/17 10:45:25;;;;;;;1.23;1.10;;;;;;;18.75;41.64;102778.97;5122705;28;20031;-55
2022/04/17 10:48:10;;;;;;;1.80;1.10;;;;;;;18.77;41.67;102777.84;5141763;28;20279;-54
2022/04/17 10:50:43;;;;;;;1.80;1.10;;;;;;;18.78;41.76;102773.34;5121242;28;20042;-53
2022/04/17 10:53:31;;;;;;;1.92;1.10;;;;;;;18.79;41.88;102764.28;5106215;28;20100;-55
2022/04/17 10:56:09;;;;;;;1.42;1.13;;;;;;;18.78;41.73;102760.72;5123266;28;20027;-56
2022/04/17 10:58:57;;;;;;;2.17;1.23;;;;;;;18.78;41.88;102751.78;5122642;28;20027;-57
2022/04/17 11:01:41;;;;;;;1.95;1.00;;;;;;;18.81;41.74;102749.69;5123717;28;20044;-49
2022/04/17 11:04:22;;;;;;;1.00;0.90;;;;;;;18.82;41.66;102750.53;5141847;28;20087;-57
2022/04/17 11:07:06;;;;;;;1.92;1.00;;;;;;;18.84;41.97;102746.75;5105207;28;20484;-56
2022/04/17 11:09:33;;;;;;;1.50;1.10;;;;;;;18.84;41.79;102743.19;5140959;28;20027;-54
2022/04/17 11:12:28;;;;;;;1.60;1.33;;;;;;;18.86;41.87;102739.41;5120928;28;20023;-57
2022/04/17 11:15:02;;;;;;;1.05;0.95;;;;;;;18.86;41.91;102739.41;5102316;28;20050;-58
2022/04/17 11:17:31;;;;;;;1.17;1.00;;;;;;;18.87;41.95;102738.41;5142049;27;20035;-58
2022/04/17 11:19:59;;;;;;;1.50;1.15;;;;;;;18.90;41.77;102737.28;5127505;27;20062;-56
2022/04/17 11:22:32;;;;;;;1.58;1.00;;;;;;;18.90;41.80;102735.50;5125984;27;20023;-57
2022/04/17 11:24:58;;;;;;;2.83;1.10;;;;;;;18.90;41.50;102723.81;5145153;27;20023;-55
2022/04/17 11:27:42;;;;;;;1.45;0.90;;;;;;;18.91;41.87;102723.72;5145089;27;20034;-53
2022/04/17 11:30:27;;;;;;;1.30;0.90;;;;;;;18.92;41.69;102717.34;5126657;27;20370;-55
2022/04/17 11:32:53;;;;;;;2.60;1.10;;;;;;;18.89;41.67;102712.19;5140823;27;20176;-54
2022/04/17 11:35:21;;;;;;;1.38;0.93;;;;;;;18.92;41.81;102713.78;5109553;27;20065;-55
2022/04/17 11:37:51;;;;;;;0.93;0.82;;;;;;;18.93;41.81;102708.25;5126349;27;20042;-55
2022/04/17 11:40:17;;;;;;;0.98;0.80;;;;;;;18.92;42.20;102698.47;5144397;27;20046;-56